createdAt,value
2023-05-20T00:01:49.740Z,11.82
2023-05-20T00:04:18.265Z,11.75
2023-05-20T00:06:46.744Z,11.74
2023-05-20T00:09:15.066Z,11.72
2023-05-20T00:11:43.556Z,11.79
2023-05-20T00:14:11.967Z,11.88
2023-05-20T00:16:41.662Z,11.95
2023-05-20T00:19:10.164Z,11.99
2023-05-20T00:21:38.472Z,12.01
2023-05-20T00:24:07.110Z,12.04
2023-05-20T00:26:35.662Z,11.98
2023-05-20T00:29:04.021Z,11.97
2023-05-20T00:31:32.311Z,11.91
2023-05-20T00:34:02.159Z,11.89
2023-05-20T00:36:31.305Z,11.94
2023-05-20T00:38:59.907Z,11.86
2023-05-20T00:41:28.457Z,11.75
2023-05-20T00:43:56.959Z,11.69
2023-05-20T00:46:26.138Z,11.77
2023-05-20T00:48:54.678Z,11.74
2023-05-20T00:51:24.408Z,11.71
2023-05-20T00:53:52.965Z,11.69
2023-05-20T00:56:22.979Z,11.60
2023-05-20T00:58:51.983Z,11.50
2023-05-20T01:01:20.441Z,11.54
2023-05-20T01:03:49.057Z,11.56
2023-05-20T01:06:17.501Z,11.47
2023-05-20T01:08:47.168Z,11.44
2023-05-20T01:11:17.501Z,11.44
2023-05-20T01:13:48.014Z,11.41
2023-05-20T01:16:19.192Z,11.45
2023-05-20T01:18:48.480Z,11.35
2023-05-20T01:21:18.356Z,11.33
2023-05-20T01:23:48.232Z,11.32
2023-05-20T01:26:17.188Z,11.24
2023-05-20T01:28:45.591Z,11.21
2023-05-20T01:31:16.858Z,11.17
2023-05-20T01:33:46.007Z,11.11
2023-05-20T01:36:14.703Z,11.03
2023-05-20T01:38:43.884Z,11.03
2023-05-20T01:41:13.748Z,11.09
2023-05-20T01:43:42.439Z,10.95
2023-05-20T01:46:11.091Z,10.97
2023-05-20T01:48:39.503Z,10.91
2023-05-20T01:51:07.761Z,10.82
2023-05-20T01:53:37.430Z,10.83
2023-05-20T01:56:06.613Z,10.91
2023-05-20T01:58:36.597Z,10.95
2023-05-20T02:01:04.929Z,10.93
2023-05-20T02:03:33.203Z,10.91
2023-05-20T02:06:01.664Z,10.90
2023-05-20T02:08:38.926Z,11.06
2023-05-20T02:11:07.380Z,10.96
2023-05-20T02:13:37.051Z,10.83
2023-05-20T02:16:05.708Z,10.76
2023-05-20T02:18:35.248Z,10.81
2023-05-20T02:21:03.859Z,10.74
2023-05-20T02:23:32.472Z,10.67
2023-05-20T02:26:01.075Z,10.70
2023-05-20T02:28:29.437Z,10.64
2023-05-20T02:30:59.064Z,10.62
2023-05-20T02:33:29.045Z,10.65
2023-05-20T02:35:57.714Z,10.62
2023-05-20T02:38:26.576Z,10.66
2023-05-20T02:40:54.841Z,10.65
2023-05-20T02:43:23.116Z,10.58
2023-05-20T02:45:51.537Z,10.67
2023-05-20T02:48:21.514Z,10.69
2023-05-20T02:50:49.898Z,10.70
2023-05-20T02:53:18.176Z,10.71
2023-05-20T02:55:47.438Z,10.67
2023-05-20T02:58:15.806Z,10.66
2023-05-20T03:00:44.585Z,10.63
2023-05-20T03:03:13.577Z,10.53
2023-05-20T03:05:50.155Z,10.45
2023-05-20T03:08:19.825Z,10.58
2023-05-20T03:10:48.356Z,10.45
2023-05-20T03:13:16.752Z,10.48
2023-05-20T03:15:45.584Z,10.43
2023-05-20T03:18:14.525Z,10.45
2023-05-20T03:20:43.120Z,10.48
2023-05-20T03:23:13.064Z,10.37
2023-05-20T03:25:41.615Z,10.33
2023-05-20T03:28:13.094Z,10.38
2023-05-20T03:30:41.393Z,10.37
2023-05-20T03:33:10.617Z,10.43
2023-05-20T03:35:40.266Z,10.39
2023-05-20T03:38:08.609Z,10.33
2023-05-20T03:40:38.380Z,10.33
2023-05-20T03:43:06.642Z,10.31
2023-05-20T03:45:35.430Z,10.42
2023-05-20T03:48:07.547Z,10.39
2023-05-20T03:50:36.896Z,10.40
2023-05-20T03:53:05.185Z,10.48
2023-05-20T03:55:33.913Z,10.46
2023-05-20T03:58:07.834Z,10.59
2023-05-20T04:00:36.307Z,10.51
2023-05-20T04:03:05.853Z,10.44
2023-05-20T04:05:34.649Z,10.65
2023-05-20T04:08:04.761Z,10.64
2023-05-20T04:10:33.153Z,10.82
2023-05-20T04:13:01.706Z,10.92
2023-05-20T04:15:31.550Z,10.86
2023-05-20T04:18:02.139Z,10.94
2023-05-20T04:20:30.491Z,10.96
2023-05-20T04:22:59.109Z,10.91
2023-05-20T04:25:28.423Z,11.12
2023-05-20T04:27:57.895Z,11.05
2023-05-20T04:30:26.436Z,11.16
2023-05-20T04:32:56.258Z,11.17
2023-05-20T04:35:26.053Z,11.20
2023-05-20T04:37:55.271Z,11.27
2023-05-20T04:40:23.688Z,11.31
2023-05-20T04:42:51.928Z,11.37
2023-05-20T04:45:26.902Z,11.49
2023-05-20T04:47:56.710Z,11.58
2023-05-20T04:50:25.255Z,11.60
2023-05-20T04:52:53.891Z,11.63
2023-05-20T04:55:24.953Z,11.67
2023-05-20T04:57:53.523Z,11.85
2023-05-20T05:00:21.930Z,11.90
2023-05-20T05:02:50.357Z,11.89
2023-05-20T05:05:19.959Z,11.95
2023-05-20T05:07:48.402Z,12.13
2023-05-20T05:10:16.882Z,12.14
2023-05-20T05:12:45.148Z,12.24
2023-05-20T05:15:19.111Z,12.18
2023-05-20T05:18:01.713Z,12.24
2023-05-20T05:20:31.749Z,12.24
2023-05-20T05:23:00.052Z,12.36
2023-05-20T05:25:28.422Z,12.43
2023-05-20T05:27:56.774Z,12.47
2023-05-20T05:30:28.274Z,12.39
2023-05-20T05:33:09.379Z,12.61
2023-05-20T05:35:39.358Z,12.60
2023-05-20T05:38:07.785Z,12.67
2023-05-20T05:40:36.232Z,12.77
2023-05-20T05:43:04.483Z,12.72
2023-05-20T05:45:32.841Z,12.72
2023-05-20T05:48:01.355Z,12.71
2023-05-20T05:50:29.607Z,12.83
2023-05-20T05:52:59.232Z,12.96
2023-05-20T05:55:27.528Z,13.07
2023-05-20T05:57:56.429Z,13.12
2023-05-20T06:00:24.753Z,13.44
2023-05-20T06:02:53.228Z,13.29
2023-05-20T06:05:21.648Z,13.40
2023-05-20T06:07:50.087Z,13.54
2023-05-20T06:10:20.203Z,13.56
2023-05-20T06:12:48.674Z,13.63
2023-05-20T06:15:17.009Z,13.74
2023-05-20T06:17:45.442Z,13.80
2023-05-20T06:20:14.079Z,13.78
2023-05-20T06:22:42.562Z,14.01
2023-05-20T06:25:11.596Z,14.19
2023-05-20T06:27:41.371Z,13.95
2023-05-20T06:30:09.946Z,13.97
2023-05-20T06:32:38.367Z,14.06
2023-05-20T06:35:07.238Z,14.40
2023-05-20T06:37:35.655Z,14.41
2023-05-20T06:40:04.544Z,14.56
2023-05-20T06:42:32.798Z,14.50
2023-05-20T06:45:04.104Z,14.81
2023-05-20T06:47:32.623Z,14.84
2023-05-20T06:50:01.031Z,15.04
2023-05-20T06:52:29.634Z,14.96
2023-05-20T06:54:58.039Z,15.05
2023-05-20T06:57:26.560Z,15.06
2023-05-20T06:59:54.876Z,14.90
2023-05-20T07:02:24.738Z,15.00
2023-05-20T07:04:53.076Z,14.85
2023-05-20T07:07:21.355Z,14.68
2023-05-20T07:09:49.682Z,14.58
2023-05-20T07:12:18.039Z,14.71
2023-05-20T07:14:46.373Z,15.36
2023-05-20T07:17:14.662Z,15.14
2023-05-20T07:19:47.337Z,15.36
2023-05-20T07:22:16.169Z,15.10
2023-05-20T07:24:47.720Z,15.12
2023-05-20T07:27:26.899Z,15.20
2023-05-20T07:29:55.543Z,15.03
2023-05-20T07:32:23.859Z,14.71
2023-05-20T07:34:53.544Z,14.72
2023-05-20T07:40:17.172Z,15.08
2023-05-20T07:42:47.151Z,14.84
2023-05-20T07:45:16.053Z,14.91
2023-05-20T07:47:50.629Z,14.72
2023-05-20T07:50:23.143Z,14.74
2023-05-20T07:52:56.456Z,14.89
2023-05-20T07:55:25.808Z,14.98
2023-05-20T07:57:57.531Z,15.21
2023-05-20T08:00:26.574Z,15.26
2023-05-20T08:02:55.443Z,15.40
2023-05-20T08:05:26.751Z,15.46
2023-05-20T08:07:56.989Z,15.58
2023-05-20T08:10:26.022Z,15.54
2023-05-20T08:12:57.766Z,15.37
2023-05-20T08:15:30.977Z,15.39
2023-05-20T08:18:03.098Z,15.76
2023-05-20T08:20:33.677Z,16.48
2023-05-20T08:23:07.924Z,16.77
2023-05-20T08:25:39.042Z,17.02
2023-05-20T08:28:10.912Z,17.36
2023-05-20T08:30:39.611Z,16.37
2023-05-20T08:33:11.445Z,16.09
2023-05-20T08:35:42.513Z,16.60
2023-05-20T08:38:13.092Z,16.60
2023-05-20T08:40:46.439Z,16.89
2023-05-20T08:43:19.081Z,16.95
2023-05-20T08:45:53.447Z,16.63
2023-05-20T08:48:23.880Z,16.39
2023-05-20T08:51:03.282Z,16.41
2023-05-20T08:53:31.927Z,16.72
2023-05-20T08:56:19.450Z,17.87
2023-05-20T08:59:05.623Z,17.69
2023-05-20T09:01:37.211Z,17.05
2023-05-20T09:04:11.622Z,16.51
2023-05-20T09:06:47.939Z,16.84
2023-05-20T09:09:17.125Z,16.60
2023-05-20T09:11:45.924Z,16.44
2023-05-20T09:14:14.656Z,16.68
2023-05-20T09:16:44.317Z,16.76
2023-05-20T09:19:13.221Z,16.39
2023-05-20T09:21:47.601Z,16.33
2023-05-20T09:24:20.914Z,15.65
2023-05-20T09:26:49.832Z,15.97
2023-05-20T09:29:19.760Z,15.76
2023-05-20T09:31:48.858Z,15.87
2023-05-20T09:34:17.992Z,16.10
2023-05-20T09:36:48.763Z,16.33
2023-05-20T09:39:26.930Z,16.94
2023-05-20T09:41:56.673Z,17.55
2023-05-20T09:44:25.198Z,17.64
2023-05-20T09:46:54.365Z,17.77
2023-05-20T09:49:23.672Z,17.46
2023-05-20T09:51:52.285Z,17.73
2023-05-20T09:54:24.657Z,17.83
2023-05-20T09:56:54.373Z,17.65
2023-05-20T09:59:23.035Z,17.38
2023-05-20T10:01:54.649Z,17.90
2023-05-20T10:04:24.403Z,18.12
2023-05-20T10:07:14.423Z,18.11
2023-05-20T10:09:52.865Z,17.36
2023-05-20T10:12:28.262Z,17.36
2023-05-20T10:15:00.996Z,17.81
2023-05-20T10:17:35.262Z,17.35
2023-05-20T10:20:06.663Z,18.07
2023-05-20T10:22:35.686Z,18.34
2023-05-20T10:25:09.602Z,18.67
2023-05-20T10:27:44.366Z,18.23
2023-05-20T10:30:19.090Z,18.30
2023-05-20T10:32:52.885Z,18.68
2023-05-20T10:35:26.514Z,18.59
2023-05-20T10:37:55.810Z,18.40
2023-05-20T10:40:26.812Z,18.65
2023-05-20T10:42:57.331Z,18.72
2023-05-20T10:45:37.378Z,18.79
2023-05-20T10:48:06.068Z,18.49
2023-05-20T10:50:36.240Z,18.86
2023-05-20T10:53:06.985Z,19.22
2023-05-20T10:55:39.707Z,19.73
2023-05-20T10:58:08.568Z,19.71
2023-05-20T11:00:38.226Z,19.81
2023-05-20T11:03:08.800Z,20.48
2023-05-20T11:05:41.514Z,21.33
2023-05-20T11:08:27.162Z,20.58
2023-05-20T11:10:58.698Z,20.47
2023-05-20T11:13:27.324Z,20.83
2023-05-20T11:15:56.108Z,21.29
2023-05-20T11:18:24.360Z,20.14
2023-05-20T11:20:54.497Z,19.71
2023-05-20T11:23:23.350Z,19.30
2023-05-20T11:25:51.804Z,19.22
2023-05-20T11:28:21.673Z,19.90
2023-05-20T11:30:50.243Z,19.56
2023-05-20T11:33:26.623Z,20.14
2023-05-20T11:35:55.478Z,21.03
2023-05-20T11:38:23.771Z,21.64
2023-05-20T11:40:53.626Z,21.84
2023-05-20T11:43:24.202Z,21.90
2023-05-20T11:45:54.456Z,21.57
2023-05-20T11:48:23.109Z,21.69
2023-05-20T11:50:51.781Z,21.58
2023-05-20T11:53:21.158Z,21.28
2023-05-20T11:55:51.051Z,20.55
2023-05-20T11:58:19.996Z,20.90
2023-05-20T12:00:54.663Z,21.25
2023-05-20T12:03:26.069Z,20.90
2023-05-20T12:05:54.472Z,21.41
2023-05-20T12:08:22.890Z,21.10
2023-05-20T12:10:51.438Z,22.24
2023-05-20T12:13:19.806Z,23.05
2023-05-20T12:15:49.794Z,22.00
2023-05-20T12:18:18.117Z,23.98
2023-05-20T12:20:46.531Z,23.68
2023-05-20T12:23:14.966Z,24.35
2023-05-20T12:25:43.220Z,23.15
2023-05-20T12:28:11.593Z,22.79
2023-05-20T12:30:41.999Z,23.04
2023-05-20T12:33:11.704Z,23.24
2023-05-20T12:35:47.769Z,23.76
2023-05-20T12:38:20.729Z,22.47
2023-05-20T12:41:05.531Z,22.54
2023-05-20T12:43:47.280Z,23.59
2023-05-20T12:46:18.286Z,23.28
2023-05-20T12:48:56.312Z,24.03
2023-05-20T12:51:25.427Z,24.66
2023-05-20T12:53:53.696Z,24.02
2023-05-20T12:56:22.236Z,24.36
2023-05-20T12:58:50.612Z,22.88
2023-05-20T13:01:18.920Z,22.89
2023-05-20T13:03:48.031Z,22.79
2023-05-20T13:06:17.727Z,22.25
2023-05-20T13:08:46.364Z,21.55
2023-05-20T13:11:14.706Z,20.52
2023-05-20T13:13:43.781Z,20.49
2023-05-20T13:16:12.407Z,20.32
2023-05-20T13:18:40.835Z,20.02
2023-05-20T13:21:09.012Z,20.69
2023-05-20T13:23:40.015Z,21.30
2023-05-20T13:26:09.129Z,21.44
2023-05-20T13:28:37.563Z,21.91
2023-05-20T13:31:06.717Z,21.64
2023-05-20T13:33:35.068Z,22.00
2023-05-20T13:36:03.411Z,21.04
2023-05-20T13:38:31.844Z,21.06
2023-05-20T13:41:01.457Z,20.71
2023-05-20T13:43:29.746Z,20.99
2023-05-20T13:45:58.052Z,21.59
2023-05-20T13:48:26.425Z,21.17
2023-05-20T13:50:55.001Z,20.43
2023-05-20T13:53:23.754Z,20.49
2023-05-20T13:55:52.502Z,20.35
2023-05-20T13:58:22.235Z,20.61
2023-05-20T14:00:50.743Z,20.29
2023-05-20T14:03:19.745Z,20.82
2023-05-20T14:05:48.303Z,21.10
2023-05-20T14:08:16.594Z,21.20
2023-05-20T14:10:45.360Z,21.44
2023-05-20T14:13:13.726Z,20.98
2023-05-20T14:15:43.689Z,21.01
2023-05-20T14:18:12.000Z,20.63
2023-05-20T14:20:40.603Z,20.71
2023-05-20T14:23:09.002Z,20.37
2023-05-20T14:25:37.597Z,20.17
2023-05-20T14:28:06.438Z,20.20
2023-05-20T14:30:34.997Z,20.47
2023-05-20T14:33:04.846Z,20.38
2023-05-20T14:35:33.129Z,20.35
2023-05-20T14:38:02.734Z,19.87
2023-05-20T14:40:32.756Z,20.36
2023-05-20T14:43:06.019Z,20.54
2023-05-20T14:45:38.430Z,20.55
2023-05-20T14:48:13.166Z,20.02
2023-05-20T14:50:48.983Z,19.86
2023-05-20T14:53:22.289Z,19.60
2023-05-20T14:55:51.834Z,19.96
2023-05-20T14:58:24.030Z,20.36
2023-05-20T15:00:54.518Z,21.34
2023-05-20T15:03:29.278Z,21.87
2023-05-20T15:05:59.370Z,22.24
2023-05-20T15:08:34.059Z,21.95
2023-05-20T15:11:05.111Z,21.28
2023-05-20T15:13:35.889Z,20.59
2023-05-20T15:16:05.894Z,20.75
2023-05-20T15:18:36.969Z,20.26
2023-05-20T15:21:19.107Z,20.23
2023-05-20T15:23:51.362Z,19.66
2023-05-20T15:26:21.975Z,19.39
2023-05-20T15:29:11.193Z,19.47
2023-05-20T15:31:42.780Z,19.59
2023-05-20T15:34:16.296Z,19.54
2023-05-20T15:36:46.280Z,19.42
2023-05-20T15:39:26.668Z,19.49
2023-05-20T15:41:59.737Z,19.52
2023-05-20T15:44:29.898Z,19.61
2023-05-20T15:46:59.403Z,19.19
2023-05-20T15:49:29.895Z,19.13
2023-05-20T15:52:03.674Z,19.09
2023-05-20T15:54:33.325Z,18.74
2023-05-20T15:57:03.289Z,18.52
2023-05-20T15:59:37.486Z,18.47
2023-05-20T16:02:08.555Z,18.35
2023-05-20T16:04:41.927Z,18.38
2023-05-20T16:07:20.509Z,18.55
2023-05-20T16:09:49.793Z,18.66
2023-05-20T16:12:21.772Z,18.65
2023-05-20T16:14:53.257Z,18.31
2023-05-20T16:17:23.067Z,17.99
2023-05-20T16:19:54.136Z,17.93
2023-05-20T16:22:24.935Z,17.81
2023-05-20T16:24:54.604Z,17.60
2023-05-20T16:27:23.105Z,17.68
2023-05-20T16:29:51.642Z,17.56
2023-05-20T16:32:21.722Z,17.28
2023-05-20T16:34:50.177Z,17.17
2023-05-20T16:37:19.952Z,17.26
2023-05-20T16:39:48.274Z,17.36
2023-05-20T16:42:16.584Z,17.27
2023-05-20T16:44:45.043Z,17.25
2023-05-20T16:47:14.203Z,17.02
2023-05-20T16:49:42.633Z,17.02
2023-05-20T16:52:10.998Z,17.08
2023-05-20T16:54:40.739Z,17.04
2023-05-20T16:57:18.034Z,17.10
2023-05-20T16:59:50.757Z,17.10
2023-05-20T17:02:21.948Z,17.09
2023-05-20T17:04:50.746Z,17.04
2023-05-20T17:07:19.141Z,16.95
2023-05-20T17:09:48.768Z,16.91
2023-05-20T17:12:17.172Z,16.89
2023-05-20T17:14:45.679Z,16.99
2023-05-20T17:17:15.205Z,17.08
2023-05-20T17:19:43.686Z,17.14
2023-05-20T17:22:12.595Z,17.03
2023-05-20T17:24:41.162Z,16.97
2023-05-20T17:27:11.120Z,16.93
2023-05-20T17:29:39.600Z,16.96
2023-05-20T17:32:08.361Z,16.98
2023-05-20T17:34:36.973Z,16.86
2023-05-20T17:37:08.149Z,16.92
2023-05-20T17:39:36.771Z,16.76
2023-05-20T17:42:05.085Z,16.79
2023-05-20T17:44:34.898Z,16.86
2023-05-20T17:47:03.422Z,16.81
2023-05-20T17:49:31.827Z,16.80
2023-05-20T17:52:00.072Z,16.73
2023-05-20T17:54:28.347Z,16.67
2023-05-20T17:56:57.069Z,16.74
2023-05-20T17:59:25.416Z,16.86
2023-05-20T18:01:55.696Z,17.07
2023-05-20T18:04:24.381Z,17.04
2023-05-20T18:06:53.710Z,16.77
2023-05-20T18:09:21.996Z,16.66
2023-05-20T18:11:50.686Z,16.73
2023-05-20T18:14:22.688Z,16.63
2023-05-20T18:16:51.160Z,16.56
2023-05-20T18:19:20.972Z,16.54
2023-05-20T18:21:49.710Z,16.40
2023-05-20T18:24:19.089Z,16.41
2023-05-20T18:26:48.008Z,16.45
2023-05-20T18:29:16.315Z,16.44
2023-05-20T18:31:44.666Z,16.38
2023-05-20T18:34:13.023Z,16.33
2023-05-20T18:36:42.797Z,16.31
2023-05-20T18:39:31.079Z,16.21
2023-05-20T18:41:59.459Z,16.14
2023-05-20T18:44:27.763Z,16.15
2023-05-20T18:46:56.274Z,16.15
2023-05-20T18:49:24.633Z,16.08
2023-05-20T18:51:55.088Z,16.01
2023-05-20T18:54:23.542Z,15.92
2023-05-20T18:56:52.560Z,15.90
2023-05-20T18:59:25.171Z,15.93
2023-05-20T19:01:54.116Z,15.82
2023-05-20T19:04:22.496Z,15.74
2023-05-20T19:06:51.898Z,15.77
2023-05-20T19:09:21.590Z,15.74
2023-05-20T19:11:51.995Z,15.69
2023-05-20T19:14:20.498Z,15.67
2023-05-20T19:16:51.025Z,15.66
2023-05-20T19:19:19.499Z,15.70
2023-05-20T19:21:48.145Z,15.63
2023-05-20T19:24:17.647Z,15.60
2023-05-20T19:26:47.669Z,15.53
2023-05-20T19:29:15.939Z,15.48
2023-05-20T19:31:44.699Z,15.43
2023-05-20T19:34:13.065Z,15.41
2023-05-20T19:36:45.149Z,15.36
2023-05-20T19:39:15.525Z,15.32
2023-05-20T19:41:48.665Z,15.31
2023-05-20T19:44:21.319Z,15.15
2023-05-20T19:46:49.823Z,15.16
2023-05-20T19:49:18.634Z,15.15
2023-05-20T19:51:47.079Z,15.24
2023-05-20T19:54:15.909Z,15.17
2023-05-20T19:56:45.474Z,15.20
2023-05-20T19:59:18.519Z,15.08
2023-05-20T20:01:49.122Z,15.03
2023-05-20T20:04:18.406Z,15.03
2023-05-20T20:06:47.951Z,15.02
2023-05-20T20:09:18.798Z,14.90
2023-05-20T20:11:47.594Z,14.86
2023-05-20T20:14:16.364Z,14.85
2023-05-20T20:16:48.619Z,14.79
2023-05-20T20:19:22.646Z,14.66
2023-05-20T20:21:54.733Z,14.65
2023-05-20T20:24:24.076Z,14.58
2023-05-20T20:26:54.318Z,14.58
2023-05-20T20:29:24.068Z,14.49
2023-05-20T20:31:54.906Z,14.39
2023-05-20T20:34:26.808Z,14.34
2023-05-20T20:37:01.452Z,14.27
2023-05-20T20:39:31.458Z,14.19
2023-05-20T20:42:00.774Z,14.14
2023-05-20T20:44:32.431Z,14.05
2023-05-20T20:47:04.660Z,14.08
2023-05-20T20:49:36.183Z,14.10
2023-05-20T20:52:05.591Z,14.02
2023-05-20T20:54:34.630Z,14.00
2023-05-20T20:57:06.325Z,13.95
2023-05-20T20:59:34.594Z,14.04
2023-05-20T21:02:04.461Z,14.08
2023-05-20T21:04:35.843Z,14.16
2023-05-20T21:07:04.789Z,14.21
2023-05-20T21:09:33.093Z,14.20
2023-05-20T21:12:01.408Z,14.19
2023-05-20T21:14:30.087Z,14.14
2023-05-20T21:16:58.793Z,14.15
2023-05-20T21:19:29.704Z,14.12
2023-05-20T21:21:59.739Z,14.16
2023-05-20T21:24:28.374Z,14.07
2023-05-20T21:26:58.295Z,14.06
2023-05-20T21:29:30.738Z,14.01
2023-05-20T21:32:01.715Z,13.92
2023-05-20T21:34:33.516Z,13.89
2023-05-20T21:37:02.042Z,13.86
2023-05-20T21:39:31.508Z,13.79
2023-05-20T21:41:59.878Z,13.72
2023-05-20T21:44:30.891Z,13.67
2023-05-20T21:47:01.927Z,13.66
2023-05-20T21:49:31.702Z,13.65
2023-05-20T21:52:00.157Z,13.62
2023-05-20T21:54:28.479Z,13.53
2023-05-20T21:56:56.777Z,13.46
2023-05-20T21:59:25.646Z,13.41
2023-05-20T22:01:56.367Z,13.56
2023-05-20T22:04:28.574Z,13.44
2023-05-20T22:07:02.471Z,13.44
2023-05-20T22:09:34.064Z,13.38
2023-05-20T22:12:03.708Z,13.43
2023-05-20T22:14:32.002Z,13.43
2023-05-20T22:17:00.366Z,13.44
2023-05-20T22:19:32.678Z,13.55
2023-05-20T22:22:03.198Z,13.48
2023-05-20T22:24:31.456Z,13.48
2023-05-20T22:27:00.149Z,13.47
2023-05-20T22:29:31.974Z,13.47
2023-05-20T22:32:00.829Z,13.37
2023-05-20T22:34:29.510Z,13.34
2023-05-20T22:37:00.055Z,13.29
2023-05-20T22:39:29.796Z,13.26
2023-05-20T22:41:58.144Z,13.21
2023-05-20T22:44:26.585Z,13.18
2023-05-20T22:46:55.477Z,13.14
2023-05-20T22:49:25.095Z,13.11
2023-05-20T22:51:53.688Z,13.19
2023-05-20T22:54:22.023Z,13.11
2023-05-20T22:56:58.065Z,13.07
2023-05-20T22:59:27.124Z,13.03
2023-05-20T23:01:55.538Z,13.01
2023-05-20T23:04:24.243Z,13.12
2023-05-20T23:06:54.484Z,13.04
2023-05-20T23:09:22.958Z,13.06
2023-05-20T23:11:53.512Z,13.02
2023-05-20T23:14:24.525Z,12.94
2023-05-20T23:16:52.840Z,12.95
2023-05-20T23:19:21.203Z,12.96
2023-05-20T23:21:49.616Z,12.88
2023-05-20T23:24:18.330Z,12.88
2023-05-20T23:26:46.681Z,12.84
2023-05-20T23:29:16.951Z,12.79
2023-05-20T23:31:45.261Z,12.69
2023-05-20T23:34:13.816Z,12.66
2023-05-20T23:36:42.962Z,12.62
2023-05-20T23:39:11.351Z,12.65
2023-05-20T23:41:39.963Z,12.62
2023-05-20T23:44:08.302Z,12.63
2023-05-20T23:46:38.830Z,12.64
2023-05-20T23:49:07.286Z,12.65
2023-05-20T23:51:36.467Z,12.63
2023-05-20T23:54:04.768Z,12.65
2023-05-20T23:56:33.068Z,12.70
2023-05-20T23:59:01.977Z,12.66
